sensor_id;sensor_type;location;lat;lon;timestamp;P1;durP1;ratioP1;P2;durP2;ratioP2
12218;SDS011;6172;42.646;23.344;2023-03-14T00:01:48;15.90;;;8.67;;
12218;SDS011;6172;42.646;23.344;2023-03-14T00:04:15;13.70;;;8.37;;
12218;SDS011;6172;42.646;23.344;2023-03-14T00:06:43;14.93;;;8.60;;
12218;SDS011;6172;42.646;23.344;2023-03-14T00:09:14;16.13;;;9.40;;
12218;SDS011;6172;42.646;23.344;2023-03-14T00:11:56;15.53;;;8.83;;
12218;SDS011;6172;42.646;23.344;2023-03-14T00:14:23;15.93;;;9.20;;
12218;SDS011;6172;42.646;23.344;2023-03-14T00:16:50;17.23;;;8.60;;
12218;SDS011;6172;42.646;23.344;2023-03-14T00:19:17;16.50;;;8.30;;
12218;SDS011;6172;42.646;23.344;2023-03-14T00:21:44;14.60;;;7.33;;
12218;SDS011;6172;42.646;23.344;2023-03-14T00:24:11;14.50;;;8.33;;
12218;SDS011;6172;42.646;23.344;2023-03-14T00:26:39;16.73;;;8.00;;
12218;SDS011;6172;42.646;23.344;2023-03-14T00:29:07;13.87;;;8.60;;
12218;SDS011;6172;42.646;23.344;2023-03-14T00:31:34;15.47;;;8.30;;
12218;SDS011;6172;42.646;23.344;2023-03-14T00:34:01;15.83;;;7.90;;
12218;SDS011;6172;42.646;23.344;2023-03-14T00:36:28;12.83;;;7.37;;
12218;SDS011;6172;42.646;23.344;2023-03-14T00:38:55;14.60;;;7.10;;
12218;SDS011;6172;42.646;23.344;2023-03-14T00:41:22;14.90;;;8.90;;
12218;SDS011;6172;42.646;23.344;2023-03-14T00:43:49;14.53;;;8.80;;
12218;SDS011;6172;42.646;23.344;2023-03-14T00:46:18;14.13;;;8.17;;
12218;SDS011;6172;42.646;23.344;2023-03-14T00:48:48;14.63;;;7.73;;
12218;SDS011;6172;42.646;23.344;2023-03-14T00:51:15;15.57;;;8.23;;
12218;SDS011;6172;42.646;23.344;2023-03-14T00:53:42;15.07;;;8.10;;
12218;SDS011;6172;42.646;23.344;2023-03-14T00:56:09;16.80;;;8.40;;
12218;SDS011;6172;42.646;23.344;2023-03-14T00:58:38;19.57;;;8.40;;
12218;SDS011;6172;42.646;23.344;2023-03-14T01:01:05;10.53;;;7.53;;
12218;SDS011;6172;42.646;23.344;2023-03-14T01:03:34;13.23;;;8.23;;
12218;SDS011;6172;42.646;23.344;2023-03-14T01:06:09;18.63;;;9.97;;
12218;SDS011;6172;42.646;23.344;2023-03-14T01:08:39;18.97;;;9.53;;
12218;SDS011;6172;42.646;23.344;2023-03-14T01:11:07;18.53;;;9.80;;
12218;SDS011;6172;42.646;23.344;2023-03-14T01:13:35;17.37;;;9.70;;
12218;SDS011;6172;42.646;23.344;2023-03-14T01:16:03;18.60;;;10.33;;
12218;SDS011;6172;42.646;23.344;2023-03-14T01:18:32;18.33;;;9.80;;
12218;SDS011;6172;42.646;23.344;2023-03-14T01:21:02;14.67;;;9.20;;
12218;SDS011;6172;42.646;23.344;2023-03-14T01:23:29;17.77;;;8.87;;
12218;SDS011;6172;42.646;23.344;2023-03-14T01:25:56;17.00;;;9.53;;
12218;SDS011;6172;42.646;23.344;2023-03-14T01:28:23;19.27;;;10.07;;
12218;SDS011;6172;42.646;23.344;2023-03-14T01:30:51;17.80;;;9.10;;
12218;SDS011;6172;42.646;23.344;2023-03-14T01:33:18;16.70;;;8.97;;
12218;SDS011;6172;42.646;23.344;2023-03-14T01:35:49;17.97;;;8.97;;
12218;SDS011;6172;42.646;23.344;2023-03-14T01:38:16;18.20;;;9.63;;
12218;SDS011;6172;42.646;23.344;2023-03-14T01:40:43;16.97;;;9.10;;
12218;SDS011;6172;42.646;23.344;2023-03-14T01:43:14;17.10;;;9.50;;
12218;SDS011;6172;42.646;23.344;2023-03-14T01:48:47;17.77;;;9.30;;
12218;SDS011;6172;42.646;23.344;2023-03-14T01:51:23;15.53;;;9.43;;
12218;SDS011;6172;42.646;23.344;2023-03-14T01:53:56;14.73;;;9.03;;
12218;SDS011;6172;42.646;23.344;2023-03-14T01:56:29;17.23;;;9.40;;
12218;SDS011;6172;42.646;23.344;2023-03-14T01:58:57;15.80;;;9.80;;
12218;SDS011;6172;42.646;23.344;2023-03-14T02:01:26;14.87;;;8.73;;
12218;SDS011;6172;42.646;23.344;2023-03-14T02:03:54;17.73;;;9.40;;
12218;SDS011;6172;42.646;23.344;2023-03-14T02:06:26;16.17;;;8.90;;
12218;SDS011;6172;42.646;23.344;2023-03-14T02:08:58;14.40;;;9.10;;
12218;SDS011;6172;42.646;23.344;2023-03-14T02:11:26;14.57;;;8.80;;
12218;SDS011;6172;42.646;23.344;2023-03-14T02:13:56;13.73;;;8.27;;
12218;SDS011;6172;42.646;23.344;2023-03-14T02:16:25;14.70;;;8.47;;
12218;SDS011;6172;42.646;23.344;2023-03-14T02:18:52;16.47;;;9.57;;
12218;SDS011;6172;42.646;23.344;2023-03-14T02:21:20;15.13;;;8.77;;
12218;SDS011;6172;42.646;23.344;2023-03-14T02:23:59;17.87;;;9.90;;
12218;SDS011;6172;42.646;23.344;2023-03-14T02:26:36;15.60;;;9.73;;
12218;SDS011;6172;42.646;23.344;2023-03-14T02:29:08;17.50;;;9.50;;
12218;SDS011;6172;42.646;23.344;2023-03-14T02:31:35;16.63;;;9.57;;
12218;SDS011;6172;42.646;23.344;2023-03-14T02:34:03;16.03;;;9.47;;
12218;SDS011;6172;42.646;23.344;2023-03-14T02:36:30;13.53;;;9.00;;
12218;SDS011;6172;42.646;23.344;2023-03-14T02:39:00;17.73;;;9.63;;
12218;SDS011;6172;42.646;23.344;2023-03-14T02:41:33;14.87;;;9.57;;
12218;SDS011;6172;42.646;23.344;2023-03-14T02:44:00;16.03;;;9.33;;
12218;SDS011;6172;42.646;23.344;2023-03-14T02:46:29;15.37;;;8.20;;
12218;SDS011;6172;42.646;23.344;2023-03-14T02:48:57;15.40;;;9.23;;
12218;SDS011;6172;42.646;23.344;2023-03-14T02:51:27;15.23;;;8.43;;
12218;SDS011;6172;42.646;23.344;2023-03-14T02:53:55;12.47;;;8.50;;
12218;SDS011;6172;42.646;23.344;2023-03-14T02:56:22;11.57;;;7.73;;
12218;SDS011;6172;42.646;23.344;2023-03-14T02:58:49;10.73;;;6.93;;
12218;SDS011;6172;42.646;23.344;2023-03-14T03:01:16;17.77;;;8.53;;
12218;SDS011;6172;42.646;23.344;2023-03-14T03:03:46;15.90;;;8.53;;
12218;SDS011;6172;42.646;23.344;2023-03-14T03:06:15;14.27;;;8.40;;
12218;SDS011;6172;42.646;23.344;2023-03-14T03:08:42;14.83;;;7.87;;
12218;SDS011;6172;42.646;23.344;2023-03-14T03:11:09;13.87;;;8.30;;
12218;SDS011;6172;42.646;23.344;2023-03-14T03:13:36;11.80;;;7.13;;
12218;SDS011;6172;42.646;23.344;2023-03-14T03:16:03;17.83;;;8.60;;
12218;SDS011;6172;42.646;23.344;2023-03-14T03:18:31;14.27;;;8.63;;
12218;SDS011;6172;42.646;23.344;2023-03-14T03:21:00;13.23;;;8.33;;
12218;SDS011;6172;42.646;23.344;2023-03-14T03:23:28;17.43;;;8.63;;
12218;SDS011;6172;42.646;23.344;2023-03-14T03:25:55;18.97;;;8.47;;
12218;SDS011;6172;42.646;23.344;2023-03-14T03:28:22;16.03;;;8.93;;
12218;SDS011;6172;42.646;23.344;2023-03-14T03:30:49;20.73;;;8.90;;
12218;SDS011;6172;42.646;23.344;2023-03-14T03:33:16;18.97;;;8.27;;
12218;SDS011;6172;42.646;23.344;2023-03-14T03:35:43;16.73;;;8.43;;
12218;SDS011;6172;42.646;23.344;2023-03-14T03:38:14;13.93;;;8.47;;
12218;SDS011;6172;42.646;23.344;2023-03-14T03:40:42;17.90;;;8.37;;
12218;SDS011;6172;42.646;23.344;2023-03-14T03:43:09;19.30;;;8.57;;
12218;SDS011;6172;42.646;23.344;2023-03-14T03:45:36;16.40;;;8.33;;
12218;SDS011;6172;42.646;23.344;2023-03-14T03:48:03;18.20;;;8.80;;
12218;SDS011;6172;42.646;23.344;2023-03-14T03:50:30;16.37;;;8.77;;
12218;SDS011;6172;42.646;23.344;2023-03-14T03:52:57;13.93;;;8.23;;
12218;SDS011;6172;42.646;23.344;2023-03-14T03:55:25;15.17;;;8.17;;
12218;SDS011;6172;42.646;23.344;2023-03-14T03:57:53;15.87;;;8.67;;
12218;SDS011;6172;42.646;23.344;2023-03-14T04:00:20;15.37;;;9.33;;
12218;SDS011;6172;42.646;23.344;2023-03-14T04:02:47;15.53;;;9.20;;
12218;SDS011;6172;42.646;23.344;2023-03-14T04:05:14;15.07;;;8.50;;
12218;SDS011;6172;42.646;23.344;2023-03-14T04:07:41;12.60;;;8.03;;
12218;SDS011;6172;42.646;23.344;2023-03-14T04:10:08;15.83;;;8.50;;
12218;SDS011;6172;42.646;23.344;2023-03-14T04:12:37;19.13;;;9.37;;
12218;SDS011;6172;42.646;23.344;2023-03-14T04:15:04;13.73;;;8.73;;
12218;SDS011;6172;42.646;23.344;2023-03-14T04:17:32;17.70;;;10.10;;
12218;SDS011;6172;42.646;23.344;2023-03-14T04:19:59;18.57;;;9.27;;
12218;SDS011;6172;42.646;23.344;2023-03-14T04:22:26;16.67;;;9.03;;
12218;SDS011;6172;42.646;23.344;2023-03-14T04:24:53;18.23;;;9.77;;
12218;SDS011;6172;42.646;23.344;2023-03-14T04:27:20;20.33;;;8.50;;
12218;SDS011;6172;42.646;23.344;2023-03-14T04:29:48;20.03;;;9.43;;
12218;SDS011;6172;42.646;23.344;2023-03-14T04:32:15;17.20;;;9.27;;
12218;SDS011;6172;42.646;23.344;2023-03-14T04:34:42;18.60;;;8.77;;
12218;SDS011;6172;42.646;23.344;2023-03-14T04:37:09;18.67;;;8.47;;
12218;SDS011;6172;42.646;23.344;2023-03-14T04:39:36;14.90;;;8.53;;
12218;SDS011;6172;42.646;23.344;2023-03-14T04:42:03;15.70;;;8.97;;
12218;SDS011;6172;42.646;23.344;2023-03-14T04:44:29;17.97;;;8.37;;
12218;SDS011;6172;42.646;23.344;2023-03-14T04:46:58;19.60;;;8.67;;
12218;SDS011;6172;42.646;23.344;2023-03-14T04:49:25;15.73;;;9.53;;
12218;SDS011;6172;42.646;23.344;2023-03-14T04:51:52;17.47;;;8.87;;
12218;SDS011;6172;42.646;23.344;2023-03-14T04:54:19;19.83;;;8.80;;
12218;SDS011;6172;42.646;23.344;2023-03-14T04:56:46;24.23;;;8.97;;
12218;SDS011;6172;42.646;23.344;2023-03-14T04:59:12;18.50;;;8.63;;
12218;SDS011;6172;42.646;23.344;2023-03-14T05:01:39;14.93;;;9.27;;
12218;SDS011;6172;42.646;23.344;2023-03-14T05:04:08;19.00;;;8.90;;
12218;SDS011;6172;42.646;23.344;2023-03-14T05:06:35;18.70;;;9.53;;
12218;SDS011;6172;42.646;23.344;2023-03-14T05:09:02;24.20;;;9.90;;
12218;SDS011;6172;42.646;23.344;2023-03-14T05:11:32;21.80;;;9.30;;
12218;SDS011;6172;42.646;23.344;2023-03-14T05:13:59;21.47;;;10.33;;
12218;SDS011;6172;42.646;23.344;2023-03-14T05:16:26;23.77;;;10.03;;
12218;SDS011;6172;42.646;23.344;2023-03-14T05:18:53;29.43;;;9.90;;
12218;SDS011;6172;42.646;23.344;2023-03-14T05:21:22;20.97;;;10.37;;
12218;SDS011;6172;42.646;23.344;2023-03-14T05:23:49;29.93;;;11.27;;
12218;SDS011;6172;42.646;23.344;2023-03-14T05:26:15;26.50;;;10.37;;
12218;SDS011;6172;42.646;23.344;2023-03-14T05:28:43;27.97;;;11.23;;
12218;SDS011;6172;42.646;23.344;2023-03-14T05:31:09;29.97;;;11.60;;
12218;SDS011;6172;42.646;23.344;2023-03-14T05:33:36;27.57;;;11.67;;
12218;SDS011;6172;42.646;23.344;2023-03-14T05:36:04;22.53;;;12.23;;
12218;SDS011;6172;42.646;23.344;2023-03-14T05:38:33;20.90;;;12.23;;
12218;SDS011;6172;42.646;23.344;2023-03-14T05:41:00;22.57;;;12.70;;
12218;SDS011;6172;42.646;23.344;2023-03-14T05:43:27;26.67;;;12.00;;
12218;SDS011;6172;42.646;23.344;2023-03-14T05:45:54;22.37;;;11.90;;
12218;SDS011;6172;42.646;23.344;2023-03-14T05:48:21;16.87;;;10.10;;
12218;SDS011;6172;42.646;23.344;2023-03-14T05:50:54;18.70;;;10.90;;
12218;SDS011;6172;42.646;23.344;2023-03-14T05:53:24;16.57;;;10.40;;
12218;SDS011;6172;42.646;23.344;2023-03-14T05:55:53;20.90;;;9.87;;
12218;SDS011;6172;42.646;23.344;2023-03-14T05:58:21;15.13;;;10.03;;
12218;SDS011;6172;42.646;23.344;2023-03-14T06:00:49;18.43;;;9.40;;
12218;SDS011;6172;42.646;23.344;2023-03-14T06:03:16;17.37;;;9.33;;
12218;SDS011;6172;42.646;23.344;2023-03-14T06:05:43;17.53;;;10.23;;
12218;SDS011;6172;42.646;23.344;2023-03-14T06:08:11;23.17;;;10.90;;
12218;SDS011;6172;42.646;23.344;2023-03-14T06:10:38;21.60;;;9.60;;
12218;SDS011;6172;42.646;23.344;2023-03-14T06:13:07;13.37;;;8.53;;
12218;SDS011;6172;42.646;23.344;2023-03-14T06:15:34;15.90;;;8.37;;
12218;SDS011;6172;42.646;23.344;2023-03-14T06:18:01;11.57;;;6.53;;
12218;SDS011;6172;42.646;23.344;2023-03-14T06:20:28;9.30;;;6.27;;
12218;SDS011;6172;42.646;23.344;2023-03-14T06:22:55;7.37;;;5.40;;
12218;SDS011;6172;42.646;23.344;2023-03-14T06:25:22;8.30;;;5.37;;
12218;SDS011;6172;42.646;23.344;2023-03-14T06:27:49;6.83;;;5.13;;
12218;SDS011;6172;42.646;23.344;2023-03-14T06:30:17;10.17;;;4.80;;
12218;SDS011;6172;42.646;23.344;2023-03-14T06:32:44;9.87;;;5.33;;
12218;SDS011;6172;42.646;23.344;2023-03-14T06:35:14;8.80;;;4.80;;
12218;SDS011;6172;42.646;23.344;2023-03-14T06:37:41;8.07;;;5.10;;
12218;SDS011;6172;42.646;23.344;2023-03-14T06:40:08;6.20;;;4.67;;
12218;SDS011;6172;42.646;23.344;2023-03-14T06:42:37;6.37;;;4.27;;
12218;SDS011;6172;42.646;23.344;2023-03-14T06:45:05;6.63;;;4.90;;
12218;SDS011;6172;42.646;23.344;2023-03-14T06:47:34;9.03;;;4.40;;
12218;SDS011;6172;42.646;23.344;2023-03-14T06:50:01;7.03;;;4.70;;
12218;SDS011;6172;42.646;23.344;2023-03-14T06:52:28;5.73;;;4.53;;
12218;SDS011;6172;42.646;23.344;2023-03-14T06:54:55;10.10;;;4.93;;
12218;SDS011;6172;42.646;23.344;2023-03-14T06:57:22;8.40;;;4.53;;
12218;SDS011;6172;42.646;23.344;2023-03-14T06:59:49;8.37;;;4.93;;
12218;SDS011;6172;42.646;23.344;2023-03-14T07:02:16;6.47;;;4.13;;
12218;SDS011;6172;42.646;23.344;2023-03-14T07:04:44;7.40;;;4.07;;
12218;SDS011;6172;42.646;23.344;2023-03-14T07:07:11;6.33;;;3.80;;
12218;SDS011;6172;42.646;23.344;2023-03-14T07:09:37;4.30;;;3.63;;
12218;SDS011;6172;42.646;23.344;2023-03-14T07:12:04;6.97;;;4.37;;
12218;SDS011;6172;42.646;23.344;2023-03-14T07:14:32;9.07;;;4.73;;
12218;SDS011;6172;42.646;23.344;2023-03-14T07:16:58;8.10;;;4.93;;
12218;SDS011;6172;42.646;23.344;2023-03-14T07:19:25;6.57;;;5.00;;
12218;SDS011;6172;42.646;23.344;2023-03-14T07:21:55;12.97;;;5.30;;
12218;SDS011;6172;42.646;23.344;2023-03-14T07:24:22;7.17;;;4.30;;
12218;SDS011;6172;42.646;23.344;2023-03-14T07:26:49;6.10;;;4.80;;
12218;SDS011;6172;42.646;23.344;2023-03-14T07:29:16;9.90;;;5.10;;
12218;SDS011;6172;42.646;23.344;2023-03-14T07:31:43;9.03;;;5.63;;
12218;SDS011;6172;42.646;23.344;2023-03-14T07:34:09;6.57;;;4.80;;
12218;SDS011;6172;42.646;23.344;2023-03-14T07:36:36;7.13;;;4.00;;
12218;SDS011;6172;42.646;23.344;2023-03-14T07:39:04;6.43;;;4.20;;
12218;SDS011;6172;42.646;23.344;2023-03-14T07:41:31;10.20;;;4.80;;
12218;SDS011;6172;42.646;23.344;2023-03-14T07:43:59;9.47;;;5.23;;
12218;SDS011;6172;42.646;23.344;2023-03-14T07:46:26;8.13;;;5.63;;
12218;SDS011;6172;42.646;23.344;2023-03-14T07:48:52;7.67;;;5.37;;
12218;SDS011;6172;42.646;23.344;2023-03-14T07:51:20;6.23;;;4.60;;
12218;SDS011;6172;42.646;23.344;2023-03-14T07:53:47;8.43;;;5.37;;
12218;SDS011;6172;42.646;23.344;2023-03-14T07:56:15;10.20;;;5.73;;
12218;SDS011;6172;42.646;23.344;2023-03-14T07:58:42;11.80;;;5.40;;
12218;SDS011;6172;42.646;23.344;2023-03-14T08:01:09;12.60;;;7.00;;
12218;SDS011;6172;42.646;23.344;2023-03-14T08:03:36;9.43;;;6.27;;
12218;SDS011;6172;42.646;23.344;2023-03-14T08:06:03;10.73;;;6.07;;
12218;SDS011;6172;42.646;23.344;2023-03-14T08:08:30;9.70;;;5.73;;
12218;SDS011;6172;42.646;23.344;2023-03-14T08:11:01;9.30;;;6.57;;
12218;SDS011;6172;42.646;23.344;2023-03-14T08:13:31;12.47;;;6.93;;
12218;SDS011;6172;42.646;23.344;2023-03-14T08:15:58;14.03;;;6.93;;
12218;SDS011;6172;42.646;23.344;2023-03-14T08:18:25;10.73;;;7.00;;
12218;SDS011;6172;42.646;23.344;2023-03-14T08:20:52;13.17;;;6.53;;
12218;SDS011;6172;42.646;23.344;2023-03-14T08:23:19;13.37;;;7.67;;
12218;SDS011;6172;42.646;23.344;2023-03-14T08:25:48;15.70;;;7.87;;
12218;SDS011;6172;42.646;23.344;2023-03-14T08:28:15;10.17;;;6.93;;
12218;SDS011;6172;42.646;23.344;2023-03-14T08:30:43;20.07;;;9.03;;
12218;SDS011;6172;42.646;23.344;2023-03-14T08:33:10;12.00;;;7.60;;
12218;SDS011;6172;42.646;23.344;2023-03-14T08:35:37;11.87;;;7.53;;
12218;SDS011;6172;42.646;23.344;2023-03-14T08:38:04;15.37;;;7.60;;
12218;SDS011;6172;42.646;23.344;2023-03-14T08:40:31;11.77;;;7.37;;
12218;SDS011;6172;42.646;23.344;2023-03-14T08:42:58;14.43;;;8.37;;
12218;SDS011;6172;42.646;23.344;2023-03-14T08:45:25;11.23;;;7.60;;
12218;SDS011;6172;42.646;23.344;2023-03-14T08:47:54;11.90;;;7.30;;
12218;SDS011;6172;42.646;23.344;2023-03-14T08:50:21;7.60;;;6.73;;
12218;SDS011;6172;42.646;23.344;2023-03-14T08:52:49;10.63;;;7.10;;
12218;SDS011;6172;42.646;23.344;2023-03-14T08:55:16;11.97;;;7.50;;
12218;SDS011;6172;42.646;23.344;2023-03-14T08:57:42;10.10;;;7.27;;
12218;SDS011;6172;42.646;23.344;2023-03-14T09:00:10;12.07;;;7.17;;
12218;SDS011;6172;42.646;23.344;2023-03-14T09:02:40;10.10;;;7.33;;
12218;SDS011;6172;42.646;23.344;2023-03-14T09:05:09;13.40;;;7.73;;
12218;SDS011;6172;42.646;23.344;2023-03-14T09:07:37;13.03;;;6.87;;
12218;SDS011;6172;42.646;23.344;2023-03-14T09:10:05;11.83;;;7.30;;
12218;SDS011;6172;42.646;23.344;2023-03-14T09:12:33;11.00;;;7.00;;
12218;SDS011;6172;42.646;23.344;2023-03-14T09:15:01;8.83;;;6.37;;
12218;SDS011;6172;42.646;23.344;2023-03-14T09:17:28;10.60;;;5.87;;
12218;SDS011;6172;42.646;23.344;2023-03-14T09:19:55;14.17;;;6.70;;
12218;SDS011;6172;42.646;23.344;2023-03-14T09:22:24;12.20;;;6.53;;
12218;SDS011;6172;42.646;23.344;2023-03-14T09:24:51;10.43;;;7.10;;
12218;SDS011;6172;42.646;23.344;2023-03-14T09:27:18;9.80;;;6.87;;
12218;SDS011;6172;42.646;23.344;2023-03-14T09:29:48;13.23;;;7.50;;
12218;SDS011;6172;42.646;23.344;2023-03-14T09:32:16;11.57;;;7.07;;
12218;SDS011;6172;42.646;23.344;2023-03-14T09:34:43;10.87;;;7.23;;
12218;SDS011;6172;42.646;23.344;2023-03-14T09:37:12;10.27;;;6.37;;
12218;SDS011;6172;42.646;23.344;2023-03-14T09:39:42;15.60;;;7.77;;
12218;SDS011;6172;42.646;23.344;2023-03-14T09:42:13;9.37;;;6.87;;
12218;SDS011;6172;42.646;23.344;2023-03-14T09:44:45;9.30;;;6.90;;
12218;SDS011;6172;42.646;23.344;2023-03-14T09:47:21;12.27;;;6.37;;
12218;SDS011;6172;42.646;23.344;2023-03-14T09:49:51;8.00;;;6.27;;
12218;SDS011;6172;42.646;23.344;2023-03-14T09:52:19;14.23;;;6.07;;
12218;SDS011;6172;42.646;23.344;2023-03-14T09:54:56;11.63;;;6.57;;
12218;SDS011;6172;42.646;23.344;2023-03-14T09:57:27;9.00;;;6.00;;
12218;SDS011;6172;42.646;23.344;2023-03-14T10:00:02;9.10;;;5.50;;
12218;SDS011;6172;42.646;23.344;2023-03-14T10:02:38;10.73;;;6.30;;
12218;SDS011;6172;42.646;23.344;2023-03-14T10:05:08;8.63;;;5.77;;
12218;SDS011;6172;42.646;23.344;2023-03-14T10:07:41;11.30;;;6.67;;
12218;SDS011;6172;42.646;23.344;2023-03-14T10:10:12;9.40;;;5.90;;
12218;SDS011;6172;42.646;23.344;2023-03-14T10:12:45;9.93;;;5.73;;
12218;SDS011;6172;42.646;23.344;2023-03-14T10:15:24;9.00;;;6.60;;
12218;SDS011;6172;42.646;23.344;2023-03-14T10:17:52;9.13;;;5.73;;
12218;SDS011;6172;42.646;23.344;2023-03-14T10:20:28;11.53;;;5.93;;
12218;SDS011;6172;42.646;23.344;2023-03-14T10:22:59;11.17;;;6.37;;
12218;SDS011;6172;42.646;23.344;2023-03-14T10:25:28;9.23;;;5.63;;
12218;SDS011;6172;42.646;23.344;2023-03-14T10:27:57;7.70;;;5.40;;
12218;SDS011;6172;42.646;23.344;2023-03-14T10:30:29;9.67;;;5.00;;
12218;SDS011;6172;42.646;23.344;2023-03-14T10:33:07;6.30;;;4.67;;
12218;SDS011;6172;42.646;23.344;2023-03-14T10:35:35;8.20;;;4.80;;
12218;SDS011;6172;42.646;23.344;2023-03-14T10:38:03;12.17;;;4.70;;
12218;SDS011;6172;42.646;23.344;2023-03-14T10:40:32;7.23;;;4.73;;
12218;SDS011;6172;42.646;23.344;2023-03-14T10:43:04;6.57;;;4.37;;
12218;SDS011;6172;42.646;23.344;2023-03-14T10:45:34;6.47;;;4.53;;
12218;SDS011;6172;42.646;23.344;2023-03-14T10:48:23;6.63;;;4.63;;
12218;SDS011;6172;42.646;23.344;2023-03-14T10:50:59;4.07;;;3.67;;
12218;SDS011;6172;42.646;23.344;2023-03-14T10:53:41;4.83;;;3.80;;
12218;SDS011;6172;42.646;23.344;2023-03-14T10:56:14;6.33;;;3.90;;
12218;SDS011;6172;42.646;23.344;2023-03-14T10:58:45;8.47;;;3.87;;
12218;SDS011;6172;42.646;23.344;2023-03-14T11:04:14;6.27;;;3.47;;
12218;SDS011;6172;42.646;23.344;2023-03-14T11:06:48;4.57;;;2.80;;
12218;SDS011;6172;42.646;23.344;2023-03-14T11:09:24;4.50;;;2.57;;
12218;SDS011;6172;42.646;23.344;2023-03-14T11:12:18;3.93;;;2.93;;
12218;SDS011;6172;42.646;23.344;2023-03-14T11:14:59;5.17;;;3.03;;
12218;SDS011;6172;42.646;23.344;2023-03-14T11:17:34;5.17;;;2.93;;
12218;SDS011;6172;42.646;23.344;2023-03-14T11:20:12;6.93;;;3.10;;
12218;SDS011;6172;42.646;23.344;2023-03-14T11:22:55;5.63;;;2.17;;
12218;SDS011;6172;42.646;23.344;2023-03-14T11:25:30;3.83;;;2.23;;
12218;SDS011;6172;42.646;23.344;2023-03-14T11:28:07;3.90;;;2.17;;
12218;SDS011;6172;42.646;23.344;2023-03-14T11:30:42;5.37;;;2.20;;
12218;SDS011;6172;42.646;23.344;2023-03-14T11:33:18;2.57;;;1.60;;
12218;SDS011;6172;42.646;23.344;2023-03-14T11:35:53;4.80;;;2.00;;
12218;SDS011;6172;42.646;23.344;2023-03-14T11:38:29;2.23;;;1.60;;
12218;SDS011;6172;42.646;23.344;2023-03-14T11:41:03;5.87;;;1.90;;
12218;SDS011;6172;42.646;23.344;2023-03-14T11:43:40;2.10;;;1.55;;
12218;SDS011;6172;42.646;23.344;2023-03-14T11:46:09;2.30;;;1.73;;
12218;SDS011;6172;42.646;23.344;2023-03-14T11:48:42;4.88;;;2.13;;
12218;SDS011;6172;42.646;23.344;2023-03-14T11:51:17;3.80;;;1.77;;
12218;SDS011;6172;42.646;23.344;2023-03-14T11:53:54;3.60;;;1.95;;
12218;SDS011;6172;42.646;23.344;2023-03-14T11:56:27;3.72;;;2.10;;
12218;SDS011;6172;42.646;23.344;2023-03-14T11:59:01;3.03;;;2.13;;
12218;SDS011;6172;42.646;23.344;2023-03-14T12:01:34;2.30;;;1.88;;
12218;SDS011;6172;42.646;23.344;2023-03-14T12:04:18;3.05;;;1.42;;
12218;SDS011;6172;42.646;23.344;2023-03-14T12:06:55;2.13;;;1.38;;
12218;SDS011;6172;42.646;23.344;2023-03-14T12:09:23;3.58;;;1.88;;
12218;SDS011;6172;42.646;23.344;2023-03-14T12:11:52;3.65;;;2.00;;
12218;SDS011;6172;42.646;23.344;2023-03-14T12:14:23;4.80;;;2.30;;
12218;SDS011;6172;42.646;23.344;2023-03-14T12:16:53;4.13;;;1.75;;
12218;SDS011;6172;42.646;23.344;2023-03-14T12:19:34;6.40;;;2.05;;
12218;SDS011;6172;42.646;23.344;2023-03-14T12:24:53;4.18;;;1.73;;
12218;SDS011;6172;42.646;23.344;2023-03-14T12:27:40;4.85;;;1.45;;
12218;SDS011;6172;42.646;23.344;2023-03-14T12:30:18;5.78;;;2.13;;
12218;SDS011;6172;42.646;23.344;2023-03-14T12:33:10;2.28;;;1.80;;
12218;SDS011;6172;42.646;23.344;2023-03-14T12:36:03;4.97;;;1.88;;
12218;SDS011;6172;42.646;23.344;2023-03-14T12:39:07;3.70;;;1.45;;
12218;SDS011;6172;42.646;23.344;2023-03-14T12:41:46;4.25;;;1.50;;
12218;SDS011;6172;42.646;23.344;2023-03-14T12:50:23;1.77;;;1.10;;
12218;SDS011;6172;42.646;23.344;2023-03-14T12:52:55;2.25;;;1.50;;
12218;SDS011;6172;42.646;23.344;2023-03-14T12:55:44;2.42;;;1.10;;
12218;SDS011;6172;42.646;23.344;2023-03-14T12:58:17;3.45;;;1.00;;
12218;SDS011;6172;42.646;23.344;2023-03-14T13:00:54;1.95;;;1.20;;
12218;SDS011;6172;42.646;23.344;2023-03-14T13:03:26;1.05;;;0.93;;
12218;SDS011;6172;42.646;23.344;2023-03-14T13:06:05;2.97;;;1.17;;
12218;SDS011;6172;42.646;23.344;2023-03-14T13:08:33;1.03;;;0.90;;
12218;SDS011;6172;42.646;23.344;2023-03-14T13:11:06;1.95;;;0.88;;
12218;SDS011;6172;42.646;23.344;2023-03-14T13:13:44;2.08;;;1.20;;
12218;SDS011;6172;42.646;23.344;2023-03-14T13:16:15;4.40;;;1.35;;
12218;SDS011;6172;42.646;23.344;2023-03-14T13:19:00;2.15;;;1.02;;
12218;SDS011;6172;42.646;23.344;2023-03-14T13:24:27;2.08;;;0.90;;
12218;SDS011;6172;42.646;23.344;2023-03-14T13:26:56;1.80;;;1.00;;
12218;SDS011;6172;42.646;23.344;2023-03-14T13:29:24;4.80;;;1.20;;
12218;SDS011;6172;42.646;23.344;2023-03-14T13:31:54;1.63;;;0.88;;
12218;SDS011;6172;42.646;23.344;2023-03-14T13:34:25;2.40;;;0.93;;
12218;SDS011;6172;42.646;23.344;2023-03-14T13:36:53;3.88;;;0.93;;
12218;SDS011;6172;42.646;23.344;2023-03-14T13:39:21;0.88;;;0.80;;
12218;SDS011;6172;42.646;23.344;2023-03-14T13:41:50;2.00;;;1.10;;
12218;SDS011;6172;42.646;23.344;2023-03-14T13:44:18;2.47;;;0.73;;
12218;SDS011;6172;42.646;23.344;2023-03-14T13:46:51;2.00;;;0.77;;
12218;SDS011;6172;42.646;23.344;2023-03-14T13:49:19;1.47;;;1.00;;
12218;SDS011;6172;42.646;23.344;2023-03-14T13:51:51;4.33;;;1.20;;
12218;SDS011;6172;42.646;23.344;2023-03-14T13:54:18;1.00;;;0.87;;
12218;SDS011;6172;42.646;23.344;2023-03-14T13:56:46;2.77;;;0.80;;
12218;SDS011;6172;42.646;23.344;2023-03-14T13:59:21;1.20;;;1.07;;
12218;SDS011;6172;42.646;23.344;2023-03-14T14:01:48;5.33;;;1.20;;
12218;SDS011;6172;42.646;23.344;2023-03-14T14:04:17;2.23;;;1.10;;
12218;SDS011;6172;42.646;23.344;2023-03-14T14:06:47;2.27;;;1.00;;
12218;SDS011;6172;42.646;23.344;2023-03-14T14:09:19;3.43;;;1.00;;
12218;SDS011;6172;42.646;23.344;2023-03-14T14:11:50;2.03;;;0.93;;
12218;SDS011;6172;42.646;23.344;2023-03-14T14:14:21;3.10;;;1.00;;
12218;SDS011;6172;42.646;23.344;2023-03-14T14:16:54;1.70;;;0.90;;
12218;SDS011;6172;42.646;23.344;2023-03-14T14:19:23;1.07;;;0.67;;
12218;SDS011;6172;42.646;23.344;2023-03-14T14:21:53;1.37;;;0.80;;
12218;SDS011;6172;42.646;23.344;2023-03-14T14:24:22;2.03;;;0.90;;
12218;SDS011;6172;42.646;23.344;2023-03-14T14:26:51;3.73;;;1.10;;
12218;SDS011;6172;42.646;23.344;2023-03-14T14:29:25;7.37;;;1.80;;
12218;SDS011;6172;42.646;23.344;2023-03-14T14:32:08;5.33;;;0.90;;
12218;SDS011;6172;42.646;23.344;2023-03-14T14:34:39;4.20;;;1.30;;
12218;SDS011;6172;42.646;23.344;2023-03-14T14:37:20;3.57;;;1.30;;
12218;SDS011;6172;42.646;23.344;2023-03-14T14:39:50;3.70;;;0.90;;
12218;SDS011;6172;42.646;23.344;2023-03-14T14:42:19;2.93;;;1.30;;
12218;SDS011;6172;42.646;23.344;2023-03-14T14:44:49;13.40;;;1.57;;
12218;SDS011;6172;42.646;23.344;2023-03-14T14:47:18;4.23;;;1.03;;
12218;SDS011;6172;42.646;23.344;2023-03-14T14:49:48;3.53;;;0.83;;
12218;SDS011;6172;42.646;23.344;2023-03-14T14:52:17;3.10;;;0.80;;
12218;SDS011;6172;42.646;23.344;2023-03-14T14:54:45;2.67;;;1.00;;
12218;SDS011;6172;42.646;23.344;2023-03-14T14:57:18;2.13;;;0.93;;
12218;SDS011;6172;42.646;23.344;2023-03-14T14:59:47;3.63;;;1.07;;
12218;SDS011;6172;42.646;23.344;2023-03-14T15:02:29;2.70;;;0.77;;
12218;SDS011;6172;42.646;23.344;2023-03-14T15:04:58;2.50;;;0.83;;
12218;SDS011;6172;42.646;23.344;2023-03-14T15:07:25;2.60;;;0.63;;
12218;SDS011;6172;42.646;23.344;2023-03-14T15:09:52;2.00;;;0.83;;
12218;SDS011;6172;42.646;23.344;2023-03-14T15:12:20;1.53;;;0.80;;